createdAt,value
2018-04-18T00:02:02.019Z,10.67
2018-04-18T00:04:32.708Z,11.23
2018-04-18T00:07:03.563Z,10.83
2018-04-18T00:09:34.569Z,11.93
2018-04-18T00:12:05.393Z,10.63
2018-04-18T00:14:36.073Z,10.63
2018-04-18T00:17:07.027Z,10.20
2018-04-18T00:19:38.486Z,11.17
2018-04-18T00:22:09.193Z,10.47
2018-04-18T00:24:40.188Z,11.33
2018-04-18T00:27:11.216Z,10.83
2018-04-18T00:29:41.943Z,11.57
2018-04-18T00:32:12.953Z,11.17
2018-04-18T00:34:43.718Z,12.10
2018-04-18T00:37:14.531Z,11.70
2018-04-18T00:39:45.506Z,11.80
2018-04-18T00:42:16.491Z,11.03
2018-04-18T00:44:47.939Z,12.47
2018-04-18T00:47:19.424Z,11.13
2018-04-18T00:49:50.096Z,10.90
2018-04-18T00:52:21.507Z,12.03
2018-04-18T00:54:52.453Z,11.40
2018-04-18T00:57:23.281Z,11.37
2018-04-18T00:59:54.828Z,12.53
2018-04-18T01:02:26.580Z,12.03
2018-04-18T01:04:57.652Z,11.90
2018-04-18T01:07:28.472Z,11.97
2018-04-18T01:09:59.545Z,12.03
2018-04-18T01:12:30.876Z,12.93
2018-04-18T01:15:01.571Z,13.40
2018-04-18T01:17:32.304Z,12.37
2018-04-18T01:20:03.340Z,12.87
2018-04-18T01:22:34.808Z,13.43
2018-04-18T01:25:06.276Z,12.10
2018-04-18T01:27:36.952Z,13.37
2018-04-18T01:30:07.672Z,14.50
2018-04-18T01:32:39.709Z,13.43
2018-04-18T01:35:10.384Z,12.70
2018-04-18T01:37:41.205Z,13.43
2018-04-18T01:40:12.188Z,12.87
2018-04-18T01:42:42.927Z,13.90
2018-04-18T01:45:14.644Z,14.50
2018-04-18T01:47:46.024Z,13.93
2018-04-18T01:50:17.512Z,14.97
2018-04-18T01:52:48.498Z,15.07
2018-04-18T01:55:20.240Z,14.20
2018-04-18T01:57:51.270Z,14.17
2018-04-18T02:00:22.041Z,15.00
2018-04-18T02:02:52.739Z,14.57
2018-04-18T02:05:24.203Z,14.70
2018-04-18T02:07:56.070Z,15.90
2018-04-18T02:10:26.792Z,15.03
2018-04-18T02:12:57.624Z,14.40
2018-04-18T02:15:28.308Z,14.33
2018-04-18T02:18:00.112Z,15.47
2018-04-18T02:20:31.073Z,15.63
2018-04-18T02:23:02.021Z,14.87
2018-04-18T02:25:33.452Z,15.33
2018-04-18T02:28:04.441Z,15.47
2018-04-18T02:30:35.161Z,16.00
2018-04-18T02:33:06.021Z,17.10
2018-04-18T02:35:45.623Z,17.57
2018-04-18T02:38:16.875Z,17.53
2018-04-18T02:40:47.996Z,18.00
2018-04-18T02:43:19.757Z,17.23
2018-04-18T02:45:51.237Z,17.93
2018-04-18T02:48:22.101Z,17.33
2018-04-18T02:50:52.928Z,17.70
2018-04-18T02:53:23.894Z,18.33
2018-04-18T02:55:54.628Z,18.63
2018-04-18T02:58:25.409Z,17.63
2018-04-18T03:00:56.282Z,17.40
2018-04-18T03:03:27.380Z,17.87
2018-04-18T03:05:58.570Z,18.10
2018-04-18T03:08:29.396Z,18.43
2018-04-18T03:11:00.896Z,18.00
2018-04-18T03:13:32.912Z,18.60
2018-04-18T03:16:03.653Z,19.10
2018-04-18T03:18:34.532Z,18.60
2018-04-18T03:21:06.266Z,19.07
2018-04-18T03:23:37.367Z,19.13
2018-04-18T03:26:08.148Z,19.63
2018-04-18T03:28:40.172Z,20.20
2018-04-18T03:31:10.839Z,20.23
2018-04-18T03:33:41.684Z,19.87
2018-04-18T03:36:13.608Z,19.57
2018-04-18T03:38:44.295Z,18.83
2018-04-18T03:41:14.976Z,19.70
2018-04-18T03:43:46.108Z,20.13
2018-04-18T03:46:16.840Z,21.03
2018-04-18T03:48:47.580Z,21.10
2018-04-18T03:51:22.375Z,21.07
2018-04-18T03:53:53.341Z,23.67
2018-04-18T03:56:24.004Z,34.03
2018-04-18T03:58:56.255Z,22.70
2018-04-18T04:01:26.989Z,21.37
2018-04-18T04:04:04.160Z,21.07
2018-04-18T04:06:36.328Z,22.60
2018-04-18T04:09:07.921Z,23.80
2018-04-18T04:11:39.396Z,22.73
2018-04-18T04:14:10.490Z,22.83
2018-04-18T04:18:55.395Z,26.07
2018-04-18T04:23:38.728Z,23.37
2018-04-18T04:26:09.324Z,26.53
2018-04-18T04:28:40.102Z,25.13
2018-04-18T04:31:10.778Z,26.27
2018-04-18T04:33:42.352Z,25.53
2018-04-18T04:36:13.480Z,23.93
2018-04-18T04:38:44.228Z,24.20
2018-04-18T04:41:14.924Z,21.80
2018-04-18T04:43:46.163Z,27.43
2018-04-18T04:46:17.048Z,23.40
2018-04-18T04:48:47.803Z,22.27
2018-04-18T04:51:19.050Z,21.00
2018-04-18T04:53:50.068Z,20.50
2018-04-18T04:56:20.784Z,21.07
2018-04-18T04:58:51.589Z,22.33
2018-04-18T05:01:22.340Z,23.50
2018-04-18T05:03:57.704Z,24.90
2018-04-18T05:06:29.785Z,22.17
2018-04-18T05:09:17.160Z,26.47
2018-04-18T05:11:50.387Z,23.13
2018-04-18T05:14:22.085Z,21.97
2018-04-18T05:16:53.798Z,21.87
2018-04-18T05:19:25.869Z,21.30
2018-04-18T05:21:56.931Z,20.37
2018-04-18T05:24:29.754Z,18.93
2018-04-18T05:27:00.484Z,18.43
2018-04-18T05:29:31.229Z,19.37
2018-04-18T05:32:02.089Z,18.73
2018-04-18T05:34:32.834Z,19.07
2018-04-18T05:37:03.863Z,18.63
2018-04-18T05:39:34.844Z,19.70
2018-04-18T05:42:05.653Z,18.43
2018-04-18T05:44:38.081Z,18.23
2018-04-18T05:47:13.339Z,18.37
2018-04-18T05:49:48.660Z,18.67
2018-04-18T05:52:22.306Z,19.90
2018-04-18T05:54:54.529Z,18.47
2018-04-18T05:57:29.994Z,18.53
2018-04-18T06:00:03.436Z,18.60
2018-04-18T06:02:34.175Z,18.47
2018-04-18T06:05:05.254Z,18.40
2018-04-18T06:07:36.024Z,19.07
2018-04-18T06:10:07.178Z,17.83
2018-04-18T06:12:37.955Z,17.47
2018-04-18T06:15:08.884Z,18.00
2018-04-18T06:17:40.452Z,18.67
2018-04-18T06:20:11.518Z,18.20
2018-04-18T06:22:42.545Z,17.07
2018-04-18T06:25:14.080Z,17.73
2018-04-18T06:27:44.900Z,17.10
2018-04-18T06:30:16.922Z,17.83
2018-04-18T06:32:48.640Z,17.93
2018-04-18T06:35:19.984Z,17.63
2018-04-18T06:37:50.697Z,17.87
2018-04-18T06:40:21.703Z,18.23
2018-04-18T06:42:52.874Z,18.03
2018-04-18T06:45:23.739Z,19.43
2018-04-18T06:47:54.443Z,19.60
2018-04-18T06:50:25.648Z,17.80
2018-04-18T06:52:56.535Z,19.80
2018-04-18T06:55:27.552Z,19.30
2018-04-18T06:57:58.614Z,20.63
2018-04-18T07:00:29.549Z,19.50
2018-04-18T07:03:00.309Z,19.33
2018-04-18T07:05:31.536Z,18.93
2018-04-18T07:08:03.096Z,19.33
2018-04-18T07:10:33.852Z,19.70
2018-04-18T07:13:05.089Z,19.67
2018-04-18T07:15:35.941Z,20.27
2018-04-18T07:18:07.444Z,19.50
2018-04-18T07:20:38.747Z,18.87
2018-04-18T07:23:09.495Z,17.97
2018-04-18T07:25:40.532Z,18.87
2018-04-18T07:28:11.508Z,18.80
2018-04-18T07:30:42.397Z,17.77
2018-04-18T07:33:13.160Z,16.43
2018-04-18T07:35:44.227Z,15.67
2018-04-18T07:38:14.967Z,16.40
2018-04-18T07:40:45.852Z,15.53
2018-04-18T07:43:16.899Z,16.53
2018-04-18T07:45:47.616Z,16.50
2018-04-18T07:48:18.311Z,16.37
2018-04-18T07:50:49.955Z,15.73
2018-04-18T07:53:20.800Z,14.17
2018-04-18T07:55:51.753Z,15.23
2018-04-18T07:58:23.324Z,14.17
2018-04-18T08:00:54.530Z,15.20
2018-04-18T08:03:25.357Z,14.10
2018-04-18T08:05:56.200Z,13.63
2018-04-18T08:08:27.237Z,13.27
2018-04-18T08:10:58.103Z,12.87
2018-04-18T08:13:29.666Z,12.10
2018-04-18T08:16:01.406Z,11.60
2018-04-18T08:18:32.147Z,12.47
2018-04-18T08:21:03.500Z,12.00
2018-04-18T08:23:35.120Z,10.77
2018-04-18T08:26:05.984Z,10.60
2018-04-18T08:28:36.763Z,9.67
2018-04-18T08:31:07.800Z,9.87
2018-04-18T08:33:38.520Z,10.53
2018-04-18T08:36:09.251Z,9.50
2018-04-18T08:38:40.204Z,8.13
2018-04-18T08:41:11.020Z,9.03
2018-04-18T08:43:41.760Z,8.60
2018-04-18T08:46:12.704Z,9.33
2018-04-18T08:48:43.464Z,7.03
2018-04-18T08:51:15.458Z,6.27
2018-04-18T08:53:46.939Z,6.00
2018-04-18T08:56:17.700Z,5.70
2018-04-18T08:58:48.706Z,6.97
2018-04-18T09:01:19.626Z,8.87
2018-04-18T09:03:51.206Z,6.37
2018-04-18T09:06:22.631Z,7.50
2018-04-18T09:08:54.339Z,6.47
2018-04-18T09:11:25.818Z,5.43
2018-04-18T09:13:57.134Z,4.67
2018-04-18T09:16:28.129Z,4.60
2018-04-18T09:18:59.632Z,4.70
2018-04-18T09:21:31.412Z,4.80
2018-04-18T09:24:02.104Z,4.93
2018-04-18T09:26:32.869Z,5.27
2018-04-18T09:29:03.592Z,3.80
2018-04-18T09:31:35.197Z,3.60
2018-04-18T09:34:06.736Z,3.30
2018-04-18T09:36:37.528Z,3.70
2018-04-18T09:39:08.585Z,4.33
2018-04-18T09:41:39.459Z,3.90
2018-04-18T09:44:10.951Z,3.40
2018-04-18T09:46:42.815Z,4.10
2018-04-18T09:49:13.572Z,4.40
2018-04-18T09:51:44.760Z,4.27
2018-04-18T09:54:15.544Z,4.90
2018-04-18T09:56:46.427Z,5.00
2018-04-18T09:59:17.929Z,4.80
2018-04-18T10:01:48.936Z,4.17
2018-04-18T10:04:23.758Z,2.77
2018-04-18T10:06:54.835Z,4.10
2018-04-18T10:09:25.925Z,4.67
2018-04-18T10:11:56.620Z,4.77
2018-04-18T10:14:27.360Z,5.17
2018-04-18T10:16:58.513Z,3.73
2018-04-18T10:19:29.222Z,3.73
2018-04-18T10:22:00.248Z,3.43
2018-04-18T10:24:31.008Z,3.87
2018-04-18T10:27:01.924Z,3.40
2018-04-18T10:29:33.763Z,2.80
2018-04-18T10:32:04.467Z,2.80
2018-04-18T10:34:35.217Z,3.23
2018-04-18T10:37:06.377Z,2.50
2018-04-18T10:39:37.322Z,2.43
2018-04-18T10:42:08.208Z,2.80
2018-04-18T10:44:39.044Z,2.70
2018-04-18T10:47:09.870Z,2.63
2018-04-18T10:49:40.579Z,2.60
2018-04-18T10:52:11.426Z,2.63
2018-04-18T10:54:42.563Z,2.30
2018-04-18T10:57:13.652Z,2.50
2018-04-18T10:59:44.371Z,2.03
2018-04-18T11:02:15.251Z,2.57
2018-04-18T11:04:46.043Z,2.20
2018-04-18T11:07:17.248Z,2.40
2018-04-18T11:09:47.962Z,2.50
2018-04-18T11:12:19.433Z,2.60
2018-04-18T11:14:50.544Z,2.87
2018-04-18T11:17:21.376Z,3.10
2018-04-18T11:19:52.107Z,2.83
2018-04-18T11:24:56.973Z,2.50
2018-04-18T11:27:27.869Z,2.13
2018-04-18T11:29:59.801Z,2.50
2018-04-18T11:32:30.497Z,2.50
2018-04-18T11:35:01.216Z,2.93
2018-04-18T11:37:31.892Z,3.00
2018-04-18T11:40:02.845Z,3.13
2018-04-18T11:42:34.344Z,2.90
2018-04-18T11:45:05.392Z,3.17
2018-04-18T11:47:36.112Z,3.03
2018-04-18T11:50:06.826Z,3.53
2018-04-18T11:52:37.591Z,3.80
2018-04-18T11:55:08.864Z,3.57
2018-04-18T11:57:39.557Z,3.10
2018-04-18T12:00:10.240Z,2.80
2018-04-18T12:02:41.228Z,3.00
2018-04-18T12:05:12.268Z,3.17
2018-04-18T12:07:42.933Z,3.53
2018-04-18T12:10:14.773Z,3.50
2018-04-18T12:12:45.500Z,3.70
2018-04-18T12:15:16.380Z,3.17
2018-04-18T12:17:47.412Z,4.43
2018-04-18T12:20:18.108Z,3.83
2018-04-18T12:22:48.868Z,4.13
2018-04-18T12:25:19.937Z,4.10
2018-04-18T12:27:50.609Z,4.07
2018-04-18T12:30:21.685Z,4.63
2018-04-18T12:32:52.703Z,4.20
2018-04-18T12:35:23.473Z,3.47
2018-04-18T12:37:54.240Z,3.57
2018-04-18T12:40:26.424Z,3.77
2018-04-18T12:42:57.264Z,3.27
2018-04-18T12:45:28.159Z,3.90
2018-04-18T12:47:59.139Z,4.47
2018-04-18T12:50:30.728Z,3.80
2018-04-18T12:53:01.468Z,3.90
2018-04-18T12:55:32.513Z,4.37
2018-04-18T12:58:03.210Z,3.97
2018-04-18T13:00:34.209Z,4.07
2018-04-18T13:03:05.296Z,3.60
2018-04-18T13:05:36.068Z,3.53
2018-04-18T13:08:07.032Z,3.40
2018-04-18T13:10:38.897Z,3.47
2018-04-18T13:13:10.346Z,3.90
2018-04-18T13:15:41.808Z,4.03
2018-04-18T13:18:13.720Z,4.27
2018-04-18T13:20:44.552Z,3.27
2018-04-18T13:23:15.419Z,3.57
2018-04-18T13:25:46.401Z,3.40
2018-04-18T13:28:17.145Z,3.63
2018-04-18T13:30:47.870Z,3.23
2018-04-18T13:33:19.697Z,3.00
2018-04-18T13:35:51.422Z,3.60
2018-04-18T13:38:22.255Z,3.10
2018-04-18T13:40:53.221Z,3.83
2018-04-18T13:43:23.896Z,3.73
2018-04-18T13:45:54.752Z,3.50
2018-04-18T13:48:25.462Z,2.80
2018-04-18T13:50:56.324Z,3.33
2018-04-18T13:53:27.045Z,3.10
2018-04-18T13:55:58.040Z,3.20
2018-04-18T13:58:29.141Z,3.40
2018-04-18T14:00:59.856Z,3.60
2018-04-18T14:03:30.600Z,3.30
2018-04-18T14:06:01.709Z,3.40
2018-04-18T14:08:32.449Z,3.50
2018-04-18T14:11:03.321Z,3.03
2018-04-18T14:13:33.976Z,3.43
2018-04-18T14:16:04.948Z,3.00
2018-04-18T14:18:36.835Z,3.43
2018-04-18T14:21:07.656Z,3.30
2018-04-18T14:23:38.416Z,3.33
2018-04-18T14:26:09.384Z,2.97
2018-04-18T14:28:40.048Z,3.20
2018-04-18T14:31:11.831Z,3.00
2018-04-18T14:33:42.505Z,3.40
2018-04-18T14:36:13.515Z,3.30
2018-04-18T14:38:44.184Z,3.60
2018-04-18T14:41:15.661Z,3.70
2018-04-18T14:43:47.409Z,2.90
2018-04-18T14:46:17.751Z,3.70
2018-04-18T14:48:48.416Z,3.30
2018-04-18T14:51:19.112Z,3.10
2018-04-18T14:53:50.607Z,3.80
2018-04-18T14:56:21.668Z,3.90
2018-04-18T14:58:53.175Z,3.67
2018-04-18T15:01:23.940Z,3.43
2018-04-18T15:03:54.772Z,3.40
2018-04-18T15:06:25.618Z,3.67
2018-04-18T15:08:56.372Z,3.43
2018-04-18T15:11:27.117Z,3.27
2018-04-18T15:13:58.816Z,3.60
2018-04-18T15:16:29.816Z,3.40
2018-04-18T15:19:00.588Z,3.90
2018-04-18T15:21:31.428Z,3.63
2018-04-18T15:24:02.104Z,4.30
2018-04-18T15:26:33.211Z,3.90
2018-04-18T15:29:06.258Z,3.87
2018-04-18T15:31:37.600Z,3.73
2018-04-18T15:34:09.368Z,3.67
2018-04-18T15:36:40.964Z,4.03
2018-04-18T15:39:11.696Z,4.40
2018-04-18T15:41:42.445Z,3.87
2018-04-18T15:44:14.287Z,3.70
2018-04-18T15:46:46.293Z,3.77
2018-04-18T15:49:17.007Z,3.90
2018-04-18T15:51:47.740Z,3.37
2018-04-18T15:54:19.157Z,4.10
2018-04-18T15:56:52.578Z,3.87
2018-04-18T15:59:24.784Z,3.73
2018-04-18T16:01:55.768Z,4.10
2018-04-18T16:04:26.932Z,3.60
2018-04-18T16:06:57.798Z,3.60
2018-04-18T16:09:29.580Z,3.80
2018-04-18T16:12:10.145Z,4.00
2018-04-18T16:14:42.111Z,4.07
2018-04-18T16:17:12.866Z,3.70
2018-04-18T16:19:43.838Z,3.77
2018-04-18T16:22:14.780Z,3.60
2018-04-18T16:24:45.447Z,3.60
2018-04-18T16:27:17.125Z,4.10
2018-04-18T16:29:47.872Z,4.00
2018-04-18T16:32:20.077Z,4.10
2018-04-18T16:34:50.860Z,4.77
2018-04-18T16:37:22.331Z,3.87
2018-04-18T16:39:53.020Z,3.73
2018-04-18T16:42:23.943Z,3.87
2018-04-18T16:44:55.372Z,4.40
2018-04-18T16:47:26.421Z,4.73
2018-04-18T16:49:57.092Z,4.27
2018-04-18T16:52:28.967Z,3.70
2018-04-18T16:54:59.649Z,4.50
2018-04-18T16:57:30.397Z,4.03
2018-04-18T17:00:01.348Z,3.87
2018-04-18T17:02:32.863Z,4.30
2018-04-18T17:05:03.720Z,4.20
2018-04-18T17:07:35.108Z,4.60
2018-04-18T17:10:05.838Z,4.47
2018-04-18T17:12:37.560Z,4.50
2018-04-18T17:15:08.628Z,4.20
2018-04-18T17:17:40.296Z,3.57
2018-04-18T17:20:11.801Z,4.53
2018-04-18T17:22:42.484Z,4.20
2018-04-18T17:25:13.180Z,4.33
2018-04-18T17:27:43.945Z,4.50
2018-04-18T17:30:15.393Z,4.10
2018-04-18T17:32:47.125Z,4.10
2018-04-18T17:35:18.676Z,3.93
2018-04-18T17:37:49.708Z,4.00
2018-04-18T17:40:20.436Z,4.50
2018-04-18T17:42:51.119Z,4.37
2018-04-18T17:45:22.127Z,3.97
2018-04-18T17:47:53.905Z,4.37
2018-04-18T17:50:24.629Z,3.87
2018-04-18T17:52:56.188Z,4.30
2018-04-18T17:55:27.789Z,4.27
2018-04-18T17:57:58.638Z,4.90
2018-04-18T18:00:29.428Z,4.23
2018-04-18T18:03:00.380Z,3.70
2018-04-18T18:05:31.009Z,4.27
2018-04-18T18:08:01.817Z,4.03
2018-04-18T18:10:33.211Z,4.00
2018-04-18T18:13:04.013Z,3.60
2018-04-18T18:15:34.955Z,3.93
2018-04-18T18:18:05.966Z,4.40
2018-04-18T18:20:37.486Z,3.87
2018-04-18T18:23:08.455Z,3.73
2018-04-18T18:25:39.146Z,4.00
2018-04-18T18:28:10.235Z,4.57
2018-04-18T18:30:42.052Z,4.00
2018-04-18T18:33:12.725Z,5.13
2018-04-18T18:35:44.294Z,22.17
2018-04-18T18:38:15.434Z,10.43
2018-04-18T18:40:46.844Z,11.70
2018-04-18T18:43:17.692Z,13.47
2018-04-18T18:45:48.363Z,10.47
2018-04-18T18:48:19.713Z,5.60
2018-04-18T18:50:50.356Z,18.37
2018-04-18T18:53:21.914Z,19.63
2018-04-18T18:55:52.687Z,10.33
2018-04-18T18:58:23.387Z,12.90
2018-04-18T19:00:54.707Z,9.20
2018-04-18T19:03:26.424Z,7.00
2018-04-18T19:05:57.131Z,8.43
2018-04-18T19:08:27.866Z,9.03
2018-04-18T19:10:58.671Z,8.63
2018-04-18T19:13:29.844Z,7.73
2018-04-18T19:16:00.534Z,8.43
2018-04-18T19:18:32.362Z,7.93
2018-04-18T19:21:03.058Z,7.07
2018-04-18T19:23:33.831Z,6.53
2018-04-18T19:26:04.544Z,6.30
2018-04-18T19:28:35.549Z,6.00
2018-04-18T19:31:06.648Z,5.93
2018-04-18T19:33:37.796Z,12.70
2018-04-18T19:36:08.480Z,7.73
2018-04-18T19:38:40.112Z,5.97
2018-04-18T19:41:10.776Z,6.10
2018-04-18T19:43:41.755Z,6.80
2018-04-18T19:46:13.208Z,6.00
2018-04-18T19:48:44.288Z,6.60
2018-04-18T19:51:15.088Z,6.50
2018-04-18T19:53:46.610Z,6.83
2018-04-18T19:56:17.431Z,6.33
2018-04-18T19:58:48.897Z,7.90
2018-04-18T20:01:20.002Z,7.63
2018-04-18T20:03:50.867Z,6.37
2018-04-18T20:06:21.560Z,6.60
2018-04-18T20:08:52.407Z,6.17
2018-04-18T20:11:23.063Z,5.93
2018-04-18T20:13:54.142Z,6.77
2018-04-18T20:16:27.713Z,6.70
2018-04-18T20:18:59.576Z,6.27
2018-04-18T20:21:30.272Z,6.57
2018-04-18T20:24:01.031Z,6.53
2018-04-18T20:26:31.695Z,4.97
2018-04-18T20:29:02.698Z,5.50
2018-04-18T20:31:33.594Z,6.17
2018-04-18T20:34:05.360Z,6.60
2018-04-18T20:36:36.079Z,7.43
2018-04-18T20:39:07.358Z,6.33
2018-04-18T20:41:38.027Z,6.47
2018-04-18T20:44:09.088Z,6.00
2018-04-18T20:46:39.771Z,5.90
2018-04-18T20:49:10.858Z,5.90
2018-04-18T20:51:41.575Z,5.67
2018-04-18T20:54:12.368Z,8.33
2018-04-18T20:56:43.066Z,7.47
2018-04-18T20:59:13.775Z,6.97
2018-04-18T21:01:45.204Z,7.93
2018-04-18T21:04:16.154Z,6.80
2018-04-18T21:06:46.833Z,6.23
2018-04-18T21:09:18.587Z,6.07
2018-04-18T21:11:49.275Z,6.70
2018-04-18T21:14:19.946Z,6.90
2018-04-18T21:16:50.630Z,7.83
2018-04-18T21:19:21.917Z,8.37
2018-04-18T21:21:53.362Z,7.27
2018-04-18T21:24:24.857Z,12.43
2018-04-18T21:26:55.484Z,8.97
2018-04-18T21:29:26.252Z,9.33
2018-04-18T21:31:56.934Z,10.37
2018-04-18T21:34:27.876Z,10.67
2018-04-18T21:36:58.487Z,8.93
2018-04-18T21:39:29.586Z,6.50
2018-04-18T21:42:00.285Z,6.00
2018-04-18T21:44:31.266Z,6.23
2018-04-18T21:47:01.840Z,5.97
2018-04-18T21:49:32.408Z,5.77
2018-04-18T21:52:03.174Z,7.43
2018-04-18T21:54:34.268Z,7.87
2018-04-18T21:57:04.938Z,5.67
2018-04-18T21:59:35.617Z,5.90
2018-04-18T22:02:06.280Z,6.20
2018-04-18T22:04:37.210Z,6.43
2018-04-18T22:07:07.849Z,6.00
2018-04-18T22:09:38.970Z,8.00
2018-04-18T22:12:09.637Z,8.73
2018-04-18T22:14:40.600Z,7.30
2018-04-18T22:17:11.302Z,8.33
2018-04-18T22:19:42.783Z,9.93
2018-04-18T22:22:14.219Z,8.53
2018-04-18T22:24:44.883Z,9.70
2018-04-18T22:27:15.576Z,8.93
2018-04-18T22:29:46.687Z,8.80
2018-04-18T22:32:17.341Z,10.03
2018-04-18T22:34:47.995Z,10.93
2018-04-18T22:37:18.643Z,12.47
2018-04-18T22:39:50.715Z,9.97
2018-04-18T22:42:21.395Z,11.67
2018-04-18T22:44:52.237Z,11.57
2018-04-18T22:47:22.939Z,9.47
2018-04-18T22:49:53.900Z,9.83
2018-04-18T22:52:24.617Z,10.87
2018-04-18T22:54:55.655Z,10.50
2018-04-18T22:57:26.309Z,9.57
2018-04-18T22:59:57.140Z,9.93
2018-04-18T23:02:27.827Z,10.40
2018-04-18T23:04:59.624Z,10.83
2018-04-18T23:07:30.289Z,11.37
2018-04-18T23:10:01.446Z,9.63
2018-04-18T23:12:32.889Z,10.10
2018-04-18T23:15:03.860Z,10.67
2018-04-18T23:17:34.517Z,10.67
2018-04-18T23:20:05.295Z,11.47
2018-04-18T23:40:35.478Z,11.30
2018-04-18T23:43:06.357Z,11.07
2018-04-18T23:45:37.585Z,12.83
2018-04-18T23:48:09.208Z,12.60
2018-04-18T23:50:40.426Z,12.33
2018-04-18T23:53:12.035Z,12.20
2018-04-18T23:55:43.549Z,11.70
2018-04-18T23:58:14.674Z,12.20
